Time;durP1;ratioP1;P1;durP2;ratioP2;P2;SDS_P1;SDS_P2;PMS_P1;PMS_P2;Temp;Humidity;BMP_temperature;BMP_pressure;BME280_temperature;BME280_humidity;BME280_pressure;Samples;Min_cycle;Max_cycle;Signal;HPM_P1;HPM_P2
2022/04/03 00:00:45;;;;;;;22.20;14.55;;;3.90;99.90;;;;;;5010093;28;20040;-77
2022/04/03 00:03:11;;;;;;;21.73;12.77;;;3.90;99.90;;;;;;5010732;28;20383;-77
2022/04/03 00:05:43;;;;;;;22.98;13.18;;;3.90;99.90;;;;;;5011808;28;20174;-77
2022/04/03 00:08:10;;;;;;;22.57;14.07;;;3.90;99.90;;;;;;5011820;28;20033;-77
2022/04/03 00:10:36;;;;;;;21.95;12.63;;;3.90;99.90;;;;;;5011586;28;20029;-75
2022/04/03 00:13:04;;;;;;;21.45;13.27;;;3.90;99.90;;;;;;5012016;28;20049;-74
2022/04/03 00:15:30;;;;;;;20.00;13.07;;;3.90;99.90;;;;;;5026790;28;20400;-76
2022/04/03 00:17:56;;;;;;;21.90;12.77;;;3.80;99.90;;;;;;4994329;28;20383;-74
2022/04/03 00:20:22;;;;;;;23.83;13.73;;;3.90;99.90;;;;;;5012010;28;20025;-75
2022/04/03 00:22:49;;;;;;;22.77;14.23;;;3.80;99.90;;;;;;5011515;28;20030;-75
2022/04/03 00:25:17;;;;;;;23.55;13.85;;;3.80;99.90;;;;;;5010586;28;20109;-76
2022/04/03 00:27:43;;;;;;;22.80;13.75;;;3.70;99.90;;;;;;5011883;28;20053;-76
2022/04/03 00:30:09;;;;;;;21.25;13.40;;;3.70;99.90;;;;;;5011723;28;20018;-77
2022/04/03 00:32:35;;;;;;;23.38;14.98;;;3.70;99.90;;;;;;5011869;28;20068;-76
2022/04/03 00:35:03;;;;;;;22.92;14.20;;;3.70;99.90;;;;;;5011755;28;20496;-77
2022/04/03 00:37:29;;;;;;;23.85;14.70;;;3.70;99.90;;;;;;5011564;28;20080;-76
2022/04/03 00:39:55;;;;;;;22.90;13.65;;;3.70;99.90;;;;;;5011797;28;20030;-77
2022/04/03 00:42:21;;;;;;;22.23;14.48;;;3.60;99.90;;;;;;5011697;28;20033;-71
2022/04/03 00:44:48;;;;;;;25.50;14.98;;;3.60;99.90;;;;;;5011516;28;20022;-78
2022/04/03 00:47:16;;;;;;;24.25;13.90;;;3.60;99.90;;;;;;5011384;28;20091;-78
2022/04/03 00:49:42;;;;;;;25.58;15.02;;;3.50;99.90;;;;;;5011050;28;20105;-78
2022/04/03 00:52:11;;;;;;;22.95;14.82;;;3.50;99.90;;;;;;5011134;28;20030;-78
2022/04/03 00:54:37;;;;;;;22.98;13.85;;;3.50;99.90;;;;;;5013430;28;20124;-74
2022/04/03 00:57:06;;;;;;;22.90;14.48;;;3.30;99.90;;;;;;5015200;28;20169;-77
2022/04/03 00:59:33;;;;;;;24.77;13.95;;;3.30;99.90;;;;;;5015198;28;20018;-77
2022/04/03 01:02:00;;;;;;;25.98;15.30;;;3.20;99.90;;;;;;5015138;28;20033;-76
2022/04/03 01:04:26;;;;;;;25.13;14.73;;;3.20;99.90;;;;;;5015169;28;20030;-78
2022/04/03 01:06:53;;;;;;;24.08;14.82;;;3.10;99.90;;;;;;5013507;28;20407;-76
2022/04/03 01:09:19;;;;;;;23.23;14.93;;;3.10;99.90;;;;;;5014876;28;20026;-75
2022/04/03 01:11:45;;;;;;;21.67;14.70;;;3.00;99.90;;;;;;5014984;28;20518;-78
2022/04/03 01:14:11;;;;;;;24.17;16.20;;;3.00;99.90;;;;;;5014406;28;20030;-78
2022/04/03 01:16:38;;;;;;;25.25;15.38;;;3.00;99.90;;;;;;5014929;28;20029;-78
2022/04/03 01:19:05;;;;;;;25.27;16.30;;;3.00;99.90;;;;;;5014658;28;20030;-76
2022/04/03 01:21:31;;;;;;;24.23;16.65;;;2.90;99.90;;;;;;5029711;28;20026;-76
2022/04/03 01:23:57;;;;;;;25.00;16.27;;;2.90;99.90;;;;;;5014308;28;20033;-77
2022/04/03 01:26:24;;;;;;;28.55;14.95;;;2.90;99.90;;;;;;5010823;28;20415;-74
2022/04/03 01:28:51;;;;;;;26.27;16.15;;;2.90;99.90;;;;;;5014763;28;20096;-76
2022/04/03 01:31:18;;;;;;;26.85;16.00;;;2.90;99.90;;;;;;5014692;28;20022;-77
2022/04/03 01:33:44;;;;;;;25.13;16.38;;;2.90;99.90;;;;;;5013625;28;20034;-75
2022/04/03 01:36:11;;;;;;;25.23;16.55;;;2.90;99.90;;;;;;5014434;28;20018;-78
2022/04/03 01:38:37;;;;;;;26.40;15.82;;;2.80;99.90;;;;;;5014225;28;20034;-78
2022/04/03 01:41:03;;;;;;;27.10;16.15;;;2.70;99.90;;;;;;5013992;28;20141;-77
2022/04/03 01:43:28;;;;;;;23.67;16.02;;;2.70;99.90;;;;;;5014227;28;20846;-76
2022/04/03 01:45:55;;;;;;;25.65;16.33;;;2.70;99.90;;;;;;5014307;28;20049;-78
2022/04/03 01:48:22;;;;;;;29.88;18.35;;;2.70;99.90;;;;;;5012884;28;20073;-79
2022/04/03 01:50:49;;;;;;;29.08;18.45;;;2.70;99.90;;;;;;5014209;28;20476;-77
2022/04/03 01:53:16;;;;;;;26.75;17.45;;;2.60;99.90;;;;;;5012871;28;20463;-78
2022/04/03 01:55:42;;;;;;;29.15;16.98;;;2.70;99.90;;;;;;5013119;28;20052;-78
2022/04/03 01:58:09;;;;;;;25.83;15.95;;;2.60;99.90;;;;;;5013928;28;20061;-77
2022/04/03 02:00:36;;;;;;;26.75;17.02;;;2.60;99.90;;;;;;5013865;28;20025;-76
2022/04/03 02:03:05;;;;;;;26.80;16.13;;;2.60;99.90;;;;;;5014019;28;20037;-76
2022/04/03 02:05:31;;;;;;;28.65;16.38;;;2.60;99.90;;;;;;5013393;28;20534;-74
2022/04/03 02:07:57;;;;;;;24.45;15.90;;;2.60;99.90;;;;;;5013801;28;20025;-76
2022/04/03 02:10:25;;;;;;;24.55;16.35;;;2.60;99.90;;;;;;5013866;28;20109;-77
2022/04/03 02:12:52;;;;;;;24.33;16.27;;;2.60;99.90;;;;;;5029418;28;20021;-76
2022/04/03 02:15:18;;;;;;;24.98;16.70;;;2.50;99.90;;;;;;5013416;28;20034;-76
2022/04/03 02:17:44;;;;;;;23.77;16.55;;;2.60;99.90;;;;;;5013477;28;20032;-77
2022/04/03 02:20:11;;;;;;;24.50;15.45;;;2.50;99.90;;;;;;5013683;28;20026;-77
2022/04/03 02:22:37;;;;;;;27.05;16.73;;;2.50;99.90;;;;;;5012429;28;20116;-78
2022/04/03 02:25:04;;;;;;;23.63;15.40;;;2.60;99.90;;;;;;5012369;28;20046;-75
2022/04/03 02:27:31;;;;;;;25.25;16.00;;;2.50;99.90;;;;;;5013791;28;20379;-77
2022/04/03 02:29:57;;;;;;;28.75;17.58;;;2.50;99.90;;;;;;5028436;28;20022;-77
2022/04/03 02:32:23;;;;;;;26.30;15.77;;;2.50;99.90;;;;;;5013407;28;20053;-73
2022/04/03 02:34:49;;;;;;;26.52;16.65;;;2.40;99.90;;;;;;5013116;28;20033;-76
2022/04/03 02:37:15;;;;;;;26.80;15.55;;;2.40;99.90;;;;;;5011698;28;20029;-77
2022/04/03 02:39:44;;;;;;;28.83;16.63;;;2.40;99.90;;;;;;5013022;28;20022;-76
2022/04/03 02:42:10;;;;;;;25.85;16.10;;;2.40;99.90;;;;;;5011794;28;20426;-75
2022/04/03 02:44:36;;;;;;;25.95;15.88;;;2.40;99.90;;;;;;5012922;28;20510;-76
2022/04/03 02:47:02;;;;;;;25.33;15.90;;;2.40;99.90;;;;;;5028375;28;20129;-76
2022/04/03 02:49:27;;;;;;;27.23;16.45;;;2.40;99.90;;;;;;5013107;28;20361;-75
2022/04/03 02:51:53;;;;;;;27.38;17.23;;;2.30;99.90;;;;;;5013016;28;20041;-76
2022/04/03 02:54:19;;;;;;;26.48;16.73;;;2.30;99.90;;;;;;5012707;28;20037;-76
2022/04/03 02:56:46;;;;;;;26.67;16.77;;;2.30;99.90;;;;;;5011503;28;20030;-76
2022/04/03 02:59:12;;;;;;;25.20;16.52;;;2.40;99.90;;;;;;5011615;28;20442;-78
2022/04/03 03:01:38;;;;;;;22.50;15.02;;;2.40;99.90;;;;;;5012370;28;20030;-77
2022/04/03 03:04:04;;;;;;;24.23;15.60;;;2.30;99.90;;;;;;5012973;28;20057;-77
2022/04/03 03:06:30;;;;;;;25.20;16.92;;;2.40;99.90;;;;;;5012418;28;20061;-78
2022/04/03 03:08:56;;;;;;;24.90;16.52;;;2.40;99.90;;;;;;5012728;28;20054;-78
2022/04/03 03:11:22;;;;;;;25.33;16.50;;;2.30;99.90;;;;;;5012897;28;20029;-77
2022/04/03 03:13:49;;;;;;;25.50;16.45;;;2.30;99.90;;;;;;5012723;28;20514;-76
2022/04/03 03:16:15;;;;;;;26.45;16.80;;;2.30;99.90;;;;;;5012146;28;20057;-77
2022/04/03 03:18:42;;;;;;;26.27;16.20;;;2.30;99.90;;;;;;5011309;28;20017;-77
2022/04/03 03:21:08;;;;;;;27.55;16.90;;;2.30;99.90;;;;;;5012637;28;20028;-77
2022/04/03 03:23:34;;;;;;;24.70;15.45;;;2.20;99.90;;;;;;5010815;28;20049;-77
2022/04/03 03:26:00;;;;;;;26.45;17.35;;;2.20;99.90;;;;;;5012501;28;20029;-72
2022/04/03 03:28:26;;;;;;;23.30;16.08;;;2.20;99.90;;;;;;5012624;28;20026;-77
2022/04/03 03:30:52;;;;;;;26.85;16.88;;;2.20;99.90;;;;;;5010587;28;20129;-75
2022/04/03 03:33:18;;;;;;;26.90;16.70;;;2.20;99.90;;;;;;5012403;28;20101;-76
2022/04/03 03:35:44;;;;;;;25.45;16.63;;;2.20;99.90;;;;;;5012317;28;20057;-78
2022/04/03 03:38:10;;;;;;;27.02;16.02;;;2.10;99.90;;;;;;5011811;28;20022;-76
2022/04/03 03:40:38;;;;;;;25.17;15.40;;;2.10;99.90;;;;;;5011736;28;20030;-76
2022/04/03 03:43:04;;;;;;;24.73;15.38;;;2.10;99.90;;;;;;5010983;28;20026;-76
2022/04/03 03:45:30;;;;;;;22.40;14.52;;;2.10;99.90;;;;;;5012076;28;20476;-76
2022/04/03 03:47:57;;;;;;;25.05;16.02;;;2.10;99.90;;;;;;5011704;28;20042;-74
2022/04/03 03:50:25;;;;;;;25.73;16.13;;;2.10;99.90;;;;;;5012340;28;20396;-75
2022/04/03 03:52:51;;;;;;;23.38;15.43;;;2.20;99.90;;;;;;5011647;28;20022;-76
2022/04/03 03:55:17;;;;;;;25.77;17.45;;;2.20;99.90;;;;;;5010784;28;20065;-77
2022/04/03 03:57:45;;;;;;;28.80;18.15;;;2.30;99.90;;;;;;5010912;28;20033;-76
2022/04/03 04:00:11;;;;;;;26.58;17.20;;;2.40;99.90;;;;;;5011507;28;20030;-78
2022/04/03 04:02:40;;;;;;;25.50;17.13;;;2.40;99.90;;;;;;5027007;28;20064;-78
2022/04/03 04:05:07;;;;;;;23.33;15.35;;;2.50;99.90;;;;;;5011993;28;20054;-77
2022/04/03 04:07:44;;;;;;;26.83;17.48;;;2.40;99.90;;;;;;5011707;28;20034;-75
2022/04/03 04:10:12;;;;;;;24.48;15.32;;;2.50;99.90;;;;;;5010881;28;20045;-77
2022/04/03 04:12:39;;;;;;;23.75;15.00;;;2.50;99.90;;;;;;5011761;28;20046;-77
2022/04/03 04:15:07;;;;;;;22.55;13.75;;;2.40;99.90;;;;;;5011602;28;20034;-77
2022/04/03 04:17:38;;;;;;;22.90;15.48;;;2.50;99.90;;;;;;5011726;28;20025;-76
2022/04/03 04:20:09;;;;;;;22.13;14.73;;;2.50;99.90;;;;;;5012158;28;20058;-76
2022/04/03 04:22:35;;;;;;;23.73;15.10;;;2.50;99.90;;;;;;5010506;28;20046;-76
2022/04/03 04:25:01;;;;;;;21.67;14.70;;;2.50;99.90;;;;;;5010837;28;20029;-77
2022/04/03 04:27:27;;;;;;;23.25;16.05;;;2.60;99.90;;;;;;5011747;28;20443;-76
2022/04/03 04:29:53;;;;;;;25.42;15.40;;;2.60;99.90;;;;;;5013888;28;20054;-74
2022/04/03 04:32:21;;;;;;;22.17;15.18;;;2.60;99.90;;;;;;5015340;28;20033;-75
2022/04/03 04:34:49;;;;;;;21.90;14.63;;;2.60;99.90;;;;;;5015445;28;20060;-73
2022/04/03 04:37:15;;;;;;;22.83;14.13;;;2.70;99.90;;;;;;5015816;28;20384;-73
2022/04/03 04:39:41;;;;;;;26.65;15.57;;;2.70;99.90;;;;;;5015502;28;20025;-77
2022/04/03 04:42:07;;;;;;;28.90;17.52;;;2.90;99.90;;;;;;5015134;28;20502;-77
2022/04/03 04:44:34;;;;;;;25.40;15.35;;;3.30;99.90;;;;;;5015454;28;20072;-75
2022/04/03 04:46:59;;;;;;;25.17;15.88;;;3.90;99.90;;;;;;5015231;28;20050;-77
2022/04/03 04:49:25;;;;;;;21.83;14.93;;;4.60;99.90;;;;;;5015151;28;20026;-76
2022/04/03 04:51:51;;;;;;;20.75;13.40;;;4.70;99.90;;;;;;5030791;28;20033;-76
2022/04/03 04:54:17;;;;;;;20.17;12.98;;;5.40;99.90;;;;;;4997221;28;20030;-76
2022/04/03 04:56:43;;;;;;;21.42;13.25;;;5.30;99.90;;;;;;5030255;28;20033;-77
2022/04/03 04:59:09;;;;;;;21.73;12.73;;;4.80;99.90;;;;;;5015249;28;20018;-76
2022/04/03 05:01:35;;;;;;;20.00;12.32;;;4.60;99.90;;;;;;5014570;28;20490;-77
2022/04/03 05:04:01;;;;;;;20.67;12.60;;;4.50;99.90;;;;;;5012051;28;20025;-72
2022/04/03 05:06:27;;;;;;;18.05;11.75;;;4.40;99.90;;;;;;5012190;28;20476;-77
2022/04/03 05:08:55;;;;;;;19.42;13.93;;;4.10;99.90;;;;;;5012665;28;20080;-76
2022/04/03 05:11:23;;;;;;;20.85;13.60;;;5.20;99.90;;;;;;5014103;28;20030;-74
2022/04/03 05:13:49;;;;;;;17.48;11.95;;;6.10;99.90;;;;;;5013242;28;20053;-75
2022/04/03 05:16:16;;;;;;;19.60;13.57;;;6.40;99.90;;;;;;5012868;28;20040;-73
2022/04/03 05:18:41;;;;;;;17.92;12.00;;;7.10;99.90;;;;;;4997062;28;20064;-73
2022/04/03 05:21:09;;;;;;;17.65;11.77;;;7.40;99.90;;;;;;5014254;28;20053;-73
2022/04/03 05:23:34;;;;;;;19.67;11.40;;;7.80;99.90;;;;;;5013862;28;20032;-72
2022/04/03 05:26:00;;;;;;;18.55;11.02;;;8.40;99.00;;;;;;4993502;28;20121;-75
2022/04/03 05:28:26;;;;;;;23.60;13.35;;;8.30;99.40;;;;;;4994799;28;20034;-75
2022/04/03 05:30:53;;;;;;;30.52;18.30;;;7.40;99.40;;;;;;5002165;28;20040;-75
2022/04/03 05:33:19;;;;;;;27.70;16.17;;;6.70;99.90;;;;;;5013845;28;20041;-76
2022/04/03 05:35:45;;;;;;;25.02;14.73;;;6.30;99.90;;;;;;5003388;28;20094;-73
2022/04/03 05:38:11;;;;;;;20.17;11.13;;;5.70;99.90;;;;;;5007700;28;20425;-75
2022/04/03 05:40:38;;;;;;;17.52;10.65;;;5.60;99.90;;;;;;5012631;28;20026;-75
2022/04/03 05:43:04;;;;;;;20.42;10.13;;;5.30;99.90;;;;;;5012441;28;20431;-74
2022/04/03 05:45:31;;;;;;;20.98;11.05;;;5.00;99.90;;;;;;5011628;28;20080;-76
2022/04/03 05:47:57;;;;;;;16.98;10.05;;;5.00;99.90;;;;;;5007685;28;20400;-77
2022/04/03 05:50:23;;;;;;;19.35;10.90;;;4.90;99.90;;;;;;4994715;28;20034;-75
2022/04/03 05:52:51;;;;;;;17.60;10.07;;;4.80;99.90;;;;;;5010817;28;20056;-71
2022/04/03 05:55:20;;;;;;;19.27;10.63;;;4.70;99.90;;;;;;5028112;28;20033;-76
2022/04/03 05:57:48;;;;;;;19.02;11.75;;;4.80;99.90;;;;;;5026511;28;20043;-72
2022/04/03 06:00:15;;;;;;;18.27;10.77;;;4.70;99.90;;;;;;5010814;28;20492;-75
2022/04/03 06:02:53;;;;;;;17.08;10.85;;;4.80;99.90;;;;;;5001698;28;20084;-76
2022/04/03 06:05:25;;;;;;;17.05;10.48;;;4.90;99.90;;;;;;5008479;28;20098;-76
2022/04/03 06:07:51;;;;;;;17.95;10.27;;;4.90;99.90;;;;;;5028733;28;20018;-75
2022/04/03 06:10:19;;;;;;;17.95;10.70;;;4.90;99.90;;;;;;5011714;28;20022;-75
2022/04/03 06:13:01;;;;;;;20.17;11.13;;;4.90;99.90;;;;;;5012458;28;20073;-75
2022/04/03 06:15:33;;;;;;;20.08;11.65;;;4.90;99.90;;;;;;5013127;28;20038;-75
2022/04/03 06:18:01;;;;;;;23.33;13.60;;;4.90;99.90;;;;;;5029114;28;20091;-74
2022/04/03 06:20:28;;;;;;;23.50;12.85;;;4.90;99.90;;;;;;5012139;28;20026;-75
2022/04/03 06:22:54;;;;;;;18.23;10.93;;;5.10;99.90;;;;;;5012740;28;20032;-74
2022/04/03 06:25:20;;;;;;;18.83;11.00;;;5.00;99.90;;;;;;5010903;28;20103;-75
2022/04/03 06:27:46;;;;;;;19.42;11.05;;;5.10;99.90;;;;;;5027799;28;20114;-74
2022/04/03 06:30:13;;;;;;;17.00;9.95;;;5.20;99.90;;;;;;5012717;28;20437;-74
2022/04/03 06:32:39;;;;;;;16.92;10.15;;;5.20;99.90;;;;;;5027962;28;20037;-74
2022/04/03 06:35:08;;;;;;;16.70;9.23;;;5.30;99.90;;;;;;5011118;28;20030;-74
2022/04/03 06:37:37;;;;;;;14.00;8.63;;;5.30;99.90;;;;;;5011777;28;20022;-72
2022/04/03 06:40:07;;;;;;;14.27;8.13;;;5.30;99.90;;;;;;5010138;28;20048;-71
2022/04/03 06:42:36;;;;;;;13.98;8.77;;;5.30;99.90;;;;;;5027203;28;20045;-74
2022/04/03 06:45:03;;;;;;;15.82;8.25;;;5.40;99.90;;;;;;5012369;28;20022;-73
2022/04/03 06:47:31;;;;;;;15.77;8.27;;;5.50;99.90;;;;;;5012034;28;20042;-75
2022/04/03 06:49:58;;;;;;;13.80;8.98;;;5.40;99.90;;;;;;5012414;28;20025;-73
2022/04/03 06:52:24;;;;;;;16.38;8.73;;;5.50;99.90;;;;;;5024056;28;20098;-74
2022/04/03 06:54:50;;;;;;;14.10;7.72;;;5.40;99.90;;;;;;5007553;28;20107;-74
2022/04/03 06:57:18;;;;;;;13.30;7.82;;;5.30;99.90;;;;;;4992338;28;20034;-72
2022/04/03 06:59:44;;;;;;;14.95;8.65;;;5.30;99.90;;;;;;4994565;28;20049;-74
2022/04/03 07:02:10;;;;;;;13.60;7.07;;;5.40;99.90;;;;;;4992025;28;20543;-75
2022/04/03 07:04:36;;;;;;;14.60;8.20;;;5.40;99.90;;;;;;5015505;28;20041;-74
2022/04/03 07:07:06;;;;;;;13.55;7.65;;;5.40;99.90;;;;;;5010246;28;20396;-73
2022/04/03 07:09:37;;;;;;;15.32;8.57;;;5.50;99.90;;;;;;5012203;28;20018;-75
2022/04/03 07:12:03;;;;;;;15.70;8.90;;;5.60;99.90;;;;;;5012053;28;20041;-74
2022/04/03 07:14:32;;;;;;;17.73;10.60;;;5.80;99.90;;;;;;5010942;28;20534;-74
2022/04/03 07:16:59;;;;;;;15.75;8.02;;;5.90;99.90;;;;;;5012130;28;20053;-75
2022/04/03 07:19:26;;;;;;;14.15;8.32;;;6.00;99.90;;;;;;5005911;28;20018;-74
2022/04/03 07:21:52;;;;;;;18.63;8.35;;;5.90;99.90;;;;;;5008538;28;20046;-76
2022/04/03 07:24:18;;;;;;;15.35;8.95;;;5.80;99.90;;;;;;5009589;28;20545;-71
2022/04/03 07:26:44;;;;;;;18.85;8.57;;;5.90;99.90;;;;;;5013401;28;20030;-73
2022/04/03 07:29:16;;;;;;;15.68;9.23;;;5.70;99.90;;;;;;5013937;28;20088;-76
2022/04/03 07:31:43;;;;;;;15.23;7.90;;;5.70;99.90;;;;;;5020383;28;20034;-74
2022/04/03 07:34:09;;;;;;;15.55;8.20;;;5.60;99.90;;;;;;5016310;28;20060;-75
2022/04/03 07:36:35;;;;;;;14.60;7.55;;;5.60;99.90;;;;;;5009623;28;20033;-74
2022/04/03 07:39:01;;;;;;;12.95;6.47;;;5.50;99.90;;;;;;5007730;28;20026;-73
2022/04/03 07:41:27;;;;;;;12.02;7.10;;;5.50;99.90;;;;;;5010433;28;20022;-74
2022/04/03 07:43:53;;;;;;;10.57;6.85;;;5.50;99.90;;;;;;5010785;28;20114;-74
2022/04/03 07:46:19;;;;;;;14.07;7.80;;;5.50;99.90;;;;;;5009281;28;20022;-73
2022/04/03 07:48:45;;;;;;;13.57;8.00;;;5.60;99.90;;;;;;5010033;28;20033;-74
2022/04/03 07:51:14;;;;;;;12.25;6.95;;;5.60;99.90;;;;;;5001067;28;20049;-68
2022/04/03 07:53:40;;;;;;;13.85;8.13;;;5.50;99.90;;;;;;4994643;28;20014;-75
2022/04/03 07:56:09;;;;;;;17.80;9.60;;;5.60;99.90;;;;;;5018853;28;20411;-69
2022/04/03 07:58:43;;;;;;;14.48;7.20;;;5.60;99.90;;;;;;5010041;28;20026;-69
2022/04/03 08:01:09;;;;;;;13.77;7.75;;;5.60;99.90;;;;;;5003166;28;20042;-66
2022/04/03 08:03:35;;;;;;;14.55;8.07;;;5.60;99.90;;;;;;5002528;28;20018;-65
2022/04/03 08:06:09;;;;;;;17.48;7.63;;;5.60;99.90;;;;;;5008632;28;20083;-67
2022/04/03 08:08:49;;;;;;;15.65;7.93;;;5.60;99.90;;;;;;5006844;28;20651;-68
2022/04/03 08:11:20;;;;;;;14.45;8.23;;;5.50;99.90;;;;;;5012262;28;20076;-68
2022/04/03 08:13:51;;;;;;;14.40;7.85;;;5.60;99.90;;;;;;4984103;28;20030;-71
2022/04/03 08:16:18;;;;;;;13.45;7.80;;;5.60;99.90;;;;;;5009171;28;20426;-72
2022/04/03 08:18:44;;;;;;;12.98;6.95;;;5.60;99.90;;;;;;5029371;28;20033;-69
2022/04/03 08:21:10;;;;;;;15.02;7.18;;;5.60;99.90;;;;;;5013046;28;20025;-67
2022/04/03 08:23:41;;;;;;;14.32;6.75;;;5.50;99.90;;;;;;5029040;28;20411;-68
2022/04/03 08:26:17;;;;;;;13.13;6.90;;;5.40;99.90;;;;;;5028502;28;20049;-67
2022/04/03 08:28:52;;;;;;;15.40;7.80;;;5.50;99.90;;;;;;5024741;28;20486;-70
2022/04/03 08:31:19;;;;;;;14.80;7.22;;;5.50;99.90;;;;;;4993367;28;20375;-68
2022/04/03 08:33:48;;;;;;;15.23;7.82;;;5.50;99.90;;;;;;4992278;28;20026;-66
2022/04/03 08:36:29;;;;;;;11.88;6.93;;;5.50;99.90;;;;;;5007310;28;20043;-75
2022/04/03 08:39:01;;;;;;;12.75;7.60;;;5.40;99.90;;;;;;4999584;28;20110;-70
2022/04/03 08:41:28;;;;;;;10.52;5.85;;;5.40;99.90;;;;;;5011667;28;20030;-69
2022/04/03 08:43:56;;;;;;;10.65;6.10;;;5.40;99.90;;;;;;5014606;28;20026;-72
2022/04/03 08:46:26;;;;;;;14.05;7.40;;;5.40;99.90;;;;;;5028082;28;20021;-67
2022/04/03 08:48:55;;;;;;;12.05;6.25;;;5.50;99.90;;;;;;5011316;28;20038;-68
2022/04/03 08:51:28;;;;;;;14.35;7.93;;;5.50;99.90;;;;;;5006262;28;20037;-69
2022/04/03 08:53:54;;;;;;;15.32;8.70;;;5.50;99.90;;;;;;5013627;28;20026;-70
2022/04/03 08:56:20;;;;;;;15.38;8.75;;;5.60;99.90;;;;;;5027124;28;20212;-70
2022/04/03 08:58:46;;;;;;;14.20;8.93;;;5.50;99.90;;;;;;5027968;28;20029;-73
2022/04/03 09:01:17;;;;;;;16.30;10.73;;;5.50;99.90;;;;;;5013863;28;20034;-67
2022/04/03 09:03:43;;;;;;;13.30;6.93;;;5.50;99.90;;;;;;4997139;28;20026;-74
2022/04/03 09:06:23;;;;;;;13.73;6.88;;;5.40;99.90;;;;;;5013348;28;20034;-67
2022/04/03 09:08:52;;;;;;;14.25;7.03;;;5.40;99.90;;;;;;5004601;28;20480;-71
2022/04/03 09:11:19;;;;;;;16.60;7.65;;;5.40;99.90;;;;;;5028969;28;20029;-71
2022/04/03 09:13:45;;;;;;;12.45;6.60;;;5.50;99.90;;;;;;5029618;28;20029;-74
2022/04/03 09:16:11;;;;;;;12.60;5.63;;;5.50;99.90;;;;;;5019978;28;20038;-68
2022/04/03 09:18:56;;;;;;;14.10;7.25;;;5.60;99.90;;;;;;5010895;28;20050;-70
2022/04/03 09:21:26;;;;;;;12.63;7.03;;;5.70;99.90;;;;;;5012350;28;20037;-74
2022/04/03 09:24:11;;;;;;;14.02;6.75;;;5.60;99.90;;;;;;4971553;28;20054;-74
2022/04/03 09:26:40;;;;;;;10.60;6.05;;;5.70;99.90;;;;;;5009171;28;20038;-79
2022/04/03 09:29:06;;;;;;;12.07;6.72;;;5.60;99.90;;;;;;5013968;28;20021;-74
2022/04/03 09:31:32;;;;;;;13.38;7.10;;;5.70;99.90;;;;;;5012821;28;20033;-72
2022/04/03 09:34:02;;;;;;;13.45;7.00;;;5.90;99.90;;;;;;5012522;28;20030;-72
2022/04/03 09:36:33;;;;;;;12.25;6.88;;;5.90;99.90;;;;;;5013601;28;20503;-73
2022/04/03 09:39:07;;;;;;;12.20;6.53;;;5.90;99.90;;;;;;5006602;28;20029;-69
2022/04/03 09:42:12;;;;;;;12.85;7.43;;;5.90;99.90;;;;;;5013456;28;20040;-69
2022/04/03 09:44:40;;;;;;;14.85;7.38;;;5.80;99.90;;;;;;5005765;28;20080;-75
2022/04/03 09:47:21;;;;;;;14.23;7.57;;;5.60;99.90;;;;;;5011807;28;20504;-73
2022/04/03 09:49:55;;;;;;;15.75;7.28;;;5.60;99.90;;;;;;5022099;28;20034;-71
2022/04/03 09:52:33;;;;;;;16.38;8.35;;;5.50;99.90;;;;;;5009543;28;20033;-72
2022/04/03 09:55:17;;;;;;;16.80;9.13;;;5.60;99.90;;;;;;5015208;28;20492;-72
2022/04/03 09:57:46;;;;;;;15.48;8.27;;;5.60;99.90;;;;;;5028677;28;20045;-73
2022/04/03 10:00:26;;;;;;;15.38;8.30;;;5.60;99.90;;;;;;5023369;28;20061;-71
2022/04/03 10:03:05;;;;;;;14.85;8.68;;;5.70;99.90;;;;;;5009284;28;20036;-72
2022/04/03 10:05:42;;;;;;;12.95;6.75;;;5.90;99.90;;;;;;5013173;28;20030;-70
2022/04/03 10:08:29;;;;;;;13.32;6.80;;;6.20;99.90;;;;;;5004237;28;20097;-68
2022/04/03 10:10:55;;;;;;;10.40;6.53;;;6.40;99.90;;;;;;5017941;28;20124;-71
2022/04/03 10:13:22;;;;;;;13.77;7.32;;;6.30;99.90;;;;;;5007037;28;20677;-71
2022/04/03 10:15:50;;;;;;;11.85;6.85;;;6.30;99.90;;;;;;5024952;28;20048;-72
2022/04/03 10:18:39;;;;;;;21.48;10.77;;;6.20;99.90;;;;;;5008410;28;20022;-72
2022/04/03 10:21:39;;;;;;;14.60;8.35;;;6.20;99.90;;;;;;4997486;28;20373;-72
2022/04/03 10:24:23;;;;;;;11.45;5.47;;;6.40;99.90;;;;;;4958659;28;20098;-76
2022/04/03 10:27:05;;;;;;;14.88;7.10;;;6.40;99.90;;;;;;4987110;28;20447;-72
2022/04/03 10:29:38;;;;;;;10.55;5.57;;;6.50;99.90;;;;;;4990883;28;20054;-72
2022/04/03 10:32:04;;;;;;;;;;;6.40;99.90;;;;;;4991336;28;20045;-72
2022/04/03 10:34:32;;;;;;;8.05;4.20;;;6.40;99.90;;;;;;4990579;28;19989;-72
2022/04/03 10:36:58;;;;;;;7.90;4.05;;;6.20;99.90;;;;;;4990837;28;20535;-69
2022/04/03 10:39:26;;;;;;;7.68;4.65;;;6.00;99.90;;;;;;4990741;28;20564;-71
2022/04/03 10:42:16;;;;;;;8.60;4.80;;;6.20;99.90;;;;;;4990267;28;20044;-70
2022/04/03 10:44:42;;;;;;;8.35;4.88;;;6.30;99.90;;;;;;4990248;28;20112;-71
2022/04/03 10:47:17;;;;;;;7.82;5.10;;;6.70;99.90;;;;;;4989166;28;20050;-73
2022/04/03 10:50:16;;;;;;;6.47;4.40;;;6.60;99.90;;;;;;4970818;28;20489;-73
2022/04/03 10:52:42;;;;;;;11.73;6.60;;;6.30;99.90;;;;;;4952288;28;20030;-71
2022/04/03 10:55:25;;;;;;;8.63;4.80;;;6.00;99.90;;;;;;4990389;28;20046;-73
2022/04/03 10:58:06;;;;;;;7.63;5.00;;;6.00;99.90;;;;;;4991095;28;20397;-72
2022/04/03 11:00:39;;;;;;;7.20;4.82;;;6.20;99.90;;;;;;4991534;28;20072;-73
2022/04/03 11:03:14;;;;;;;7.78;4.60;;;6.70;99.90;;;;;;5006819;28;20065;-74
2022/04/03 11:05:45;;;;;;;8.02;4.95;;;7.00;99.90;;;;;;5012136;28;20026;-74
2022/04/03 11:08:11;;;;;;;10.30;5.60;;;7.30;99.90;;;;;;5026329;28;20069;-74
2022/04/03 11:10:46;;;;;;;8.63;4.55;;;7.10;99.90;;;;;;5012056;28;20053;-74
2022/04/03 11:13:35;;;;;;;10.20;5.72;;;7.10;99.90;;;;;;5012244;28;20125;-74
2022/04/03 11:16:11;;;;;;;9.10;4.53;;;6.60;99.90;;;;;;5014054;28;20077;-74
2022/04/03 11:18:36;;;;;;;7.57;4.72;;;6.50;99.90;;;;;;5012189;28;20029;-67
2022/04/03 11:21:28;;;;;;;8.13;4.97;;;6.60;99.90;;;;;;5011150;28;20034;-74
2022/04/03 11:24:11;;;;;;;10.13;5.80;;;6.40;99.90;;;;;;5010724;28;20472;-73
2022/04/03 11:26:39;;;;;;;8.60;4.97;;;6.10;99.90;;;;;;4996107;28;20117;-72
2022/04/03 11:29:07;;;;;;;11.77;6.55;;;6.00;99.90;;;;;;4994522;28;20076;-74
2022/04/03 11:31:34;;;;;;;9.93;5.85;;;6.00;99.90;;;;;;4994154;28;20103;-73
2022/04/03 11:34:01;;;;;;;10.63;6.05;;;5.90;99.90;;;;;;4993858;28;20026;-71
2022/04/03 11:36:31;;;;;;;7.82;5.20;;;5.90;99.90;;;;;;4992263;28;20039;-74
2022/04/03 11:39:00;;;;;;;11.20;6.22;;;5.90;99.90;;;;;;4991545;28;20023;-71
2022/04/03 11:41:38;;;;;;;9.02;5.50;;;5.90;99.90;;;;;;4992429;28;20030;-69
2022/04/03 11:44:17;;;;;;;8.82;5.10;;;5.90;99.90;;;;;;4996107;28;20026;-73
2022/04/03 11:46:45;;;;;;;9.77;6.07;;;5.90;99.90;;;;;;4993452;28;20042;-73
2022/04/03 11:49:12;;;;;;;10.05;5.72;;;5.90;99.90;;;;;;4991797;28;20075;-74
2022/04/03 11:51:38;;;;;;;9.65;5.57;;;6.00;99.90;;;;;;4990972;28;20076;-73
2022/04/03 11:54:04;;;;;;;9.60;5.40;;;6.10;99.90;;;;;;4993617;28;20090;-74
2022/04/03 11:56:35;;;;;;;12.75;6.05;;;6.00;99.90;;;;;;5011559;28;20058;-73
2022/04/03 11:59:03;;;;;;;12.35;6.00;;;6.20;99.90;;;;;;4992767;28;20069;-75
2022/04/03 12:01:31;;;;;;;9.52;5.80;;;6.10;99.90;;;;;;4991870;28;20018;-71
2022/04/03 12:04:08;;;;;;;11.20;6.20;;;6.00;99.90;;;;;;4991183;28;20427;-75
2022/04/03 12:06:39;;;;;;;12.43;7.40;;;6.00;99.90;;;;;;4992304;28;20038;-75
2022/04/03 12:09:10;;;;;;;12.20;6.28;;;5.90;99.90;;;;;;4991189;28;20027;-74
2022/04/03 12:11:38;;;;;;;12.68;6.75;;;5.70;99.90;;;;;;5007778;28;20588;-74
2022/04/03 12:14:05;;;;;;;13.80;6.85;;;5.80;99.90;;;;;;5011217;28;20032;-72
2022/04/03 12:16:32;;;;;;;12.60;6.25;;;5.90;99.90;;;;;;5011475;28;20034;-74
2022/04/03 12:18:58;;;;;;;11.00;6.70;;;6.00;99.90;;;;;;5011557;28;20022;-74
2022/04/03 12:21:57;;;;;;;10.00;5.97;;;6.00;99.90;;;;;;5011927;28;20045;-73
2022/04/03 12:24:25;;;;;;;14.80;7.57;;;5.90;99.90;;;;;;5028546;28;20132;-71
2022/04/03 12:27:14;;;;;;;17.42;8.13;;;6.00;99.90;;;;;;5028206;28;20033;-74
2022/04/03 12:29:45;;;;;;;13.90;7.57;;;6.10;99.90;;;;;;5029121;28;20041;-73
2022/04/03 12:32:13;;;;;;;15.02;6.88;;;6.20;99.90;;;;;;5028725;28;20033;-74
2022/04/03 12:34:41;;;;;;;15.45;7.25;;;6.20;99.90;;;;;;5028454;28;20038;-70
2022/04/03 12:37:08;;;;;;;15.13;7.45;;;6.20;99.90;;;;;;5029143;28;20416;-73
2022/04/03 12:39:43;;;;;;;15.68;8.73;;;6.40;99.90;;;;;;5028838;28;20029;-73
2022/04/03 12:42:08;;;;;;;15.38;7.53;;;6.80;99.90;;;;;;5029054;28;20064;-73
2022/04/03 12:44:50;;;;;;;21.63;12.80;;;7.30;99.90;;;;;;5028898;28;20025;-73
2022/04/03 12:47:22;;;;;;;11.00;5.88;;;7.30;99.90;;;;;;5027752;28;20041;-72
2022/04/03 12:50:18;;;;;;;10.53;5.73;;;7.10;99.90;;;;;;5029160;28;20538;-68
2022/04/03 12:52:51;;;;;;;10.52;6.30;;;6.50;99.90;;;;;;5031295;28;20045;-71